sensor_id;sensor_type;location;lat;lon;timestamp;pressure;altitude;pressure_sealevel;temperature;humidity
75855;BME280;64502;59.976;30.316;2023-02-15T00:01:35;102484.53;;;1.54;71.14
75855;BME280;64502;59.976;30.316;2023-02-15T00:04:01;102485.41;;;1.55;71.07
75855;BME280;64502;59.976;30.316;2023-02-15T00:06:26;102476.75;;;1.58;71.53
75855;BME280;64502;59.976;30.316;2023-02-15T00:08:53;102483.72;;;1.59;71.23
75855;BME280;64502;59.976;30.316;2023-02-15T00:11:19;102478.53;;;1.62;71.76
75855;BME280;64502;59.976;30.316;2023-02-15T00:14:16;102479.47;;;1.70;70.96
75855;BME280;64502;59.976;30.316;2023-02-15T00:16:43;102477.72;;;1.70;70.40
75855;BME280;64502;59.976;30.316;2023-02-15T00:19:10;102477.75;;;1.72;70.39
75855;BME280;64502;59.976;30.316;2023-02-15T00:21:37;102480.38;;;1.75;70.78
75855;BME280;64502;59.976;30.316;2023-02-15T00:24:04;102485.56;;;1.76;70.55
75855;BME280;64502;59.976;30.316;2023-02-15T00:26:30;102482.97;;;1.72;70.39
75855;BME280;64502;59.976;30.316;2023-02-15T00:28:56;102482.91;;;1.67;69.98
75855;BME280;64502;59.976;30.316;2023-02-15T00:31:23;102488.91;;;1.57;70.84
75855;BME280;64502;59.976;30.316;2023-02-15T00:33:49;102481.84;;;1.41;71.18
75855;BME280;64502;59.976;30.316;2023-02-15T00:36:14;102480.91;;;1.31;70.94
75855;BME280;64502;59.976;30.316;2023-02-15T00:38:39;102474.78;;;1.23;71.75
75855;BME280;64502;59.976;30.316;2023-02-15T00:41:07;102475.63;;;1.23;71.93
75855;BME280;64502;59.976;30.316;2023-02-15T00:43:34;102483.41;;;1.20;71.41
75855;BME280;64502;59.976;30.316;2023-02-15T00:46:00;102475.56;;;1.17;72.35
75855;BME280;64502;59.976;30.316;2023-02-15T00:48:25;102475.53;;;1.13;71.80
75855;BME280;64502;59.976;30.316;2023-02-15T00:50:53;102473.78;;;1.11;71.67
75855;BME280;64502;59.976;30.316;2023-02-15T00:53:20;102475.50;;;1.11;71.90
75855;BME280;64502;59.976;30.316;2023-02-15T00:55:46;102466.88;;;1.12;71.87
75855;BME280;64502;59.976;30.316;2023-02-15T00:58:12;102470.34;;;1.16;71.84
75855;BME280;64502;59.976;30.316;2023-02-15T01:00:40;102465.22;;;1.20;71.89
75855;BME280;64502;59.976;30.316;2023-02-15T01:03:06;102468.69;;;1.25;71.60
75855;BME280;64502;59.976;30.316;2023-02-15T01:05:32;102473.94;;;1.30;71.75
75855;BME280;64502;59.976;30.316;2023-02-15T01:07:58;102480.09;;;1.37;71.34
75855;BME280;64502;59.976;30.316;2023-02-15T01:10:24;102483.63;;;1.46;71.56
75855;BME280;64502;59.976;30.316;2023-02-15T01:12:51;102482.81;;;1.58;70.94
75855;BME280;64502;59.976;30.316;2023-02-15T01:15:17;102477.69;;;1.66;70.41
75855;BME280;64502;59.976;30.316;2023-02-15T01:17:43;102475.16;;;1.73;69.85
75855;BME280;64502;59.976;30.316;2023-02-15T01:20:11;102473.47;;;1.83;69.41
75855;BME280;64502;59.976;30.316;2023-02-15T01:22:36;102471.78;;;1.91;69.87
75855;BME280;64502;59.976;30.316;2023-02-15T01:25:02;102460.56;;;2.00;69.14
75855;BME280;64502;59.976;30.316;2023-02-15T01:27:28;102452.78;;;2.05;69.32
75855;BME280;64502;59.976;30.316;2023-02-15T01:29:55;102451.03;;;2.10;69.24
75855;BME280;64502;59.976;30.316;2023-02-15T01:32:21;102450.19;;;2.12;68.89
75855;BME280;64502;59.976;30.316;2023-02-15T01:34:46;102446.75;;;2.13;68.28
75855;BME280;64502;59.976;30.316;2023-02-15T01:37:12;102454.53;;;2.15;68.25
75855;BME280;64502;59.976;30.316;2023-02-15T01:39:37;102459.78;;;2.19;69.07
75855;BME280;64502;59.976;30.316;2023-02-15T01:42:02;102455.47;;;2.25;68.32
75855;BME280;64502;59.976;30.316;2023-02-15T01:47:19;102462.47;;;2.36;67.94
75855;BME280;64502;59.976;30.316;2023-02-15T01:49:46;102461.63;;;2.37;68.32
75855;BME280;64502;59.976;30.316;2023-02-15T01:52:14;102463.34;;;2.38;68.19
75855;BME280;64502;59.976;30.316;2023-02-15T01:54:41;102455.53;;;2.38;68.98
75855;BME280;64502;59.976;30.316;2023-02-15T01:57:13;102450.31;;;2.41;68.21
75855;BME280;64502;59.976;30.316;2023-02-15T01:59:43;102446.00;;;2.47;67.99
75855;BME280;64502;59.976;30.316;2023-02-15T02:02:11;102442.53;;;2.51;68.33
75855;BME280;64502;59.976;30.316;2023-02-15T02:04:50;102442.56;;;2.54;67.22
75855;BME280;64502;59.976;30.316;2023-02-15T02:07:18;102439.06;;;2.52;67.96
75855;BME280;64502;59.976;30.316;2023-02-15T02:09:45;102432.13;;;2.54;67.45
75855;BME280;64502;59.976;30.316;2023-02-15T02:12:10;102431.25;;;2.55;67.42
75855;BME280;64502;59.976;30.316;2023-02-15T02:14:38;102433.84;;;2.56;67.02
75855;BME280;64502;59.976;30.316;2023-02-15T02:22:33;102442.56;;;2.61;66.26
75855;BME280;64502;59.976;30.316;2023-02-15T02:36:52;102421.72;;;2.69;67.87
75855;BME280;64502;59.976;30.316;2023-02-15T02:39:45;102420.88;;;2.75;67.24
75855;BME280;64502;59.976;30.316;2023-02-15T02:45:00;102422.63;;;2.83;67.01
75855;BME280;64502;59.976;30.316;2023-02-15T02:47:35;102424.38;;;2.84;66.13
75855;BME280;64502;59.976;30.316;2023-02-15T02:50:14;102422.63;;;2.85;66.90
75855;BME280;64502;59.976;30.316;2023-02-15T02:52:45;102430.44;;;2.76;65.39
75855;BME280;64502;59.976;30.316;2023-02-15T02:58:26;102424.28;;;2.51;66.14
75855;BME280;64502;59.976;30.316;2023-02-15T03:01:13;102425.16;;;2.37;66.97
75855;BME280;64502;59.976;30.316;2023-02-15T03:03:49;102423.34;;;2.22;66.95
75855;BME280;64502;59.976;30.316;2023-02-15T03:09:09;102415.47;;;2.06;67.47
75855;BME280;64502;59.976;30.316;2023-02-15T03:11:42;102418.03;;;2.04;67.45
75855;BME280;64502;59.976;30.316;2023-02-15T03:14:08;102421.53;;;2.06;68.01
75855;BME280;64502;59.976;30.316;2023-02-15T03:16:34;102419.81;;;2.10;67.56
75855;BME280;64502;59.976;30.316;2023-02-15T03:19:08;102420.72;;;2.16;67.16
75855;BME280;64502;59.976;30.316;2023-02-15T03:21:45;102412.91;;;2.16;67.38
75855;BME280;64502;59.976;30.316;2023-02-15T03:24:21;102415.50;;;2.19;67.05
75855;BME280;64502;59.976;30.316;2023-02-15T03:26:50;102418.13;;;2.19;67.38
75855;BME280;64502;59.976;30.316;2023-02-15T03:29:19;102410.31;;;2.22;67.15
75855;BME280;64502;59.976;30.316;2023-02-15T03:31:47;102413.81;;;2.25;67.61
75855;BME280;64502;59.976;30.316;2023-02-15T03:34:17;102414.69;;;2.31;67.96
75855;BME280;64502;59.976;30.316;2023-02-15T03:37:00;102406.91;;;2.40;67.35
75855;BME280;64502;59.976;30.316;2023-02-15T03:39:33;102411.28;;;2.46;67.24
75855;BME280;64502;59.976;30.316;2023-02-15T03:42:30;102408.69;;;2.55;66.74
75855;BME280;64502;59.976;30.316;2023-02-15T03:45:14;102417.41;;;2.62;67.08
75855;BME280;64502;59.976;30.316;2023-02-15T03:47:44;102404.34;;;2.63;66.73
75855;BME280;64502;59.976;30.316;2023-02-15T03:50:15;102402.63;;;2.65;66.35
75855;BME280;64502;59.976;30.316;2023-02-15T03:53:18;102402.59;;;2.67;67.05
75855;BME280;64502;59.976;30.316;2023-02-15T03:55:47;102403.50;;;2.69;66.86
75855;BME280;64502;59.976;30.316;2023-02-15T03:58:13;102396.53;;;2.70;65.41
75855;BME280;64502;59.976;30.316;2023-02-15T04:00:59;102402.63;;;2.72;65.84
75855;BME280;64502;59.976;30.316;2023-02-15T04:03:53;102411.31;;;2.66;64.60
75855;BME280;64502;59.976;30.316;2023-02-15T04:06:18;102412.19;;;2.62;65.14
75855;BME280;64502;59.976;30.316;2023-02-15T04:08:44;102413.03;;;2.61;65.10
75855;BME280;64502;59.976;30.316;2023-02-15T04:11:28;102403.47;;;2.61;65.07
75855;BME280;64502;59.976;30.316;2023-02-15T04:13:53;102411.31;;;2.63;65.93
75855;BME280;64502;59.976;30.316;2023-02-15T04:16:23;102413.03;;;2.67;65.20
75855;BME280;64502;59.976;30.316;2023-02-15T04:18:48;102413.06;;;2.72;65.71
75855;BME280;64502;59.976;30.316;2023-02-15T04:21:32;102411.34;;;2.78;65.59
75855;BME280;64502;59.976;30.316;2023-02-15T04:24:16;102407.00;;;2.82;66.37
75855;BME280;64502;59.976;30.316;2023-02-15T04:27:01;102414.81;;;2.88;66.04
75855;BME280;64502;59.976;30.316;2023-02-15T04:29:27;102411.34;;;2.91;65.05
75855;BME280;64502;59.976;30.316;2023-02-15T04:31:54;102412.19;;;2.91;64.88
75855;BME280;64502;59.976;30.316;2023-02-15T04:34:20;102413.94;;;2.89;64.22
75855;BME280;64502;59.976;30.316;2023-02-15T04:36:46;102416.56;;;2.84;64.26
75855;BME280;64502;59.976;30.316;2023-02-15T04:39:16;102416.53;;;2.80;64.37
75855;BME280;64502;59.976;30.316;2023-02-15T04:41:42;102413.06;;;2.76;64.35
75855;BME280;64502;59.976;30.316;2023-02-15T04:44:08;102412.19;;;2.76;64.81
75855;BME280;64502;59.976;30.316;2023-02-15T04:46:34;102413.06;;;2.75;63.53
75855;BME280;64502;59.976;30.316;2023-02-15T04:48:59;102417.38;;;2.73;63.93
75855;BME280;64502;59.976;30.316;2023-02-15T04:51:24;102412.16;;;2.70;65.65
75855;BME280;64502;59.976;30.316;2023-02-15T04:53:50;102411.31;;;2.69;63.62
75855;BME280;64502;59.976;30.316;2023-02-15T04:56:18;102420.88;;;2.65;63.05
75855;BME280;64502;59.976;30.316;2023-02-15T04:58:43;102418.25;;;2.59;64.93
75855;BME280;64502;59.976;30.316;2023-02-15T05:01:09;102415.63;;;2.55;66.02
75855;BME280;64502;59.976;30.316;2023-02-15T05:03:34;102408.69;;;2.55;64.72
75855;BME280;64502;59.976;30.316;2023-02-15T05:06:00;102410.41;;;2.56;65.21
75855;BME280;64502;59.976;30.316;2023-02-15T05:08:26;102421.72;;;2.57;65.59
75855;BME280;64502;59.976;30.316;2023-02-15T05:10:51;102419.13;;;2.60;64.70
75855;BME280;64502;59.976;30.316;2023-02-15T05:13:16;102414.78;;;2.62;65.09
75855;BME280;64502;59.976;30.316;2023-02-15T05:15:47;102419.09;;;2.61;64.54
75855;BME280;64502;59.976;30.316;2023-02-15T05:18:13;102412.16;;;2.59;64.09
75855;BME280;64502;59.976;30.316;2023-02-15T05:20:38;102422.59;;;2.63;64.67
75855;BME280;64502;59.976;30.316;2023-02-15T05:23:04;102423.47;;;2.62;64.92
75855;BME280;64502;59.976;30.316;2023-02-15T05:25:29;102417.41;;;2.65;64.47
75855;BME280;64502;59.976;30.316;2023-02-15T05:28:13;102418.25;;;2.67;64.45
75855;BME280;64502;59.976;30.316;2023-02-15T05:30:48;102416.53;;;2.71;65.04
75855;BME280;64502;59.976;30.316;2023-02-15T05:33:14;102414.78;;;2.70;64.03
75855;BME280;64502;59.976;30.316;2023-02-15T05:35:40;102420.00;;;2.70;64.26
75855;BME280;64502;59.976;30.316;2023-02-15T05:38:05;102420.00;;;2.70;63.76
75855;BME280;64502;59.976;30.316;2023-02-15T05:40:30;102418.28;;;2.73;65.18
75855;BME280;64502;59.976;30.316;2023-02-15T05:42:56;102418.25;;;2.78;64.93
75855;BME280;64502;59.976;30.316;2023-02-15T05:45:22;102404.38;;;2.82;64.81
75855;BME280;64502;59.976;30.316;2023-02-15T05:47:47;102408.72;;;2.87;64.02
75855;BME280;64502;59.976;30.316;2023-02-15T05:50:12;102413.94;;;2.91;64.58
75855;BME280;64502;59.976;30.316;2023-02-15T05:52:38;102405.25;;;2.93;64.15
75855;BME280;64502;59.976;30.316;2023-02-15T05:55:04;102400.91;;;2.95;64.15
75855;BME280;64502;59.976;30.316;2023-02-15T05:57:30;102406.13;;;2.95;65.20
75855;BME280;64502;59.976;30.316;2023-02-15T05:59:56;102401.78;;;2.94;63.96
75855;BME280;64502;59.976;30.316;2023-02-15T06:02:22;102409.59;;;2.97;65.01
75855;BME280;64502;59.976;30.316;2023-02-15T06:04:47;102396.59;;;3.00;64.23
75855;BME280;64502;59.976;30.316;2023-02-15T06:07:14;102404.38;;;3.05;63.69
75855;BME280;64502;59.976;30.316;2023-02-15T06:09:39;102399.16;;;3.08;63.67
75855;BME280;64502;59.976;30.316;2023-02-15T06:12:05;102397.44;;;3.10;64.20
75855;BME280;64502;59.976;30.316;2023-02-15T06:14:30;102402.66;;;3.11;63.46
75855;BME280;64502;59.976;30.316;2023-02-15T06:16:56;102402.66;;;3.10;63.85
75855;BME280;64502;59.976;30.316;2023-02-15T06:19:21;102406.13;;;3.12;64.47
75855;BME280;64502;59.976;30.316;2023-02-15T06:21:48;102399.19;;;3.09;63.77
75855;BME280;64502;59.976;30.316;2023-02-15T06:24:14;102398.31;;;3.03;63.36
75855;BME280;64502;59.976;30.316;2023-02-15T06:26:39;102395.69;;;3.04;64.99
75855;BME280;64502;59.976;30.316;2023-02-15T06:29:04;102398.31;;;3.07;63.48
75855;BME280;64502;59.976;30.316;2023-02-15T06:31:30;102407.88;;;3.11;64.76
75855;BME280;64502;59.976;30.316;2023-02-15T06:33:56;102418.31;;;3.08;64.63
75855;BME280;64502;59.976;30.316;2023-02-15T06:36:30;102409.59;;;3.08;64.32
75855;BME280;64502;59.976;30.316;2023-02-15T06:38:56;102410.47;;;3.04;63.75
75855;BME280;64502;59.976;30.316;2023-02-15T06:41:22;102412.19;;;3.08;63.47
75855;BME280;64502;59.976;30.316;2023-02-15T06:43:48;102408.72;;;3.10;63.63
75855;BME280;64502;59.976;30.316;2023-02-15T06:46:13;102415.69;;;3.15;64.34
75855;BME280;64502;59.976;30.316;2023-02-15T06:48:39;102411.34;;;3.20;63.64
75855;BME280;64502;59.976;30.316;2023-02-15T06:51:04;102414.81;;;3.20;64.02
75855;BME280;64502;59.976;30.316;2023-02-15T06:53:30;102415.72;;;3.22;64.37
75855;BME280;64502;59.976;30.316;2023-02-15T06:56:02;102417.44;;;3.25;64.50
75855;BME280;64502;59.976;30.316;2023-02-15T06:58:34;102410.47;;;3.24;63.94
75855;BME280;64502;59.976;30.316;2023-02-15T07:01:00;102414.81;;;3.29;64.18
75855;BME280;64502;59.976;30.316;2023-02-15T07:03:25;102416.56;;;3.40;63.83
75855;BME280;64502;59.976;30.316;2023-02-15T07:05:59;102415.69;;;3.45;63.75
75855;BME280;64502;59.976;30.316;2023-02-15T07:08:26;102411.31;;;3.47;63.02
75855;BME280;64502;59.976;30.316;2023-02-15T07:10:53;102416.53;;;3.55;63.34
75855;BME280;64502;59.976;30.316;2023-02-15T07:13:19;102409.56;;;3.59;63.17
75855;BME280;64502;59.976;30.316;2023-02-15T07:15:47;102411.28;;;3.63;63.57
75855;BME280;64502;59.976;30.316;2023-02-15T07:18:13;102410.44;;;3.64;63.61
75855;BME280;64502;59.976;30.316;2023-02-15T07:20:39;102406.94;;;3.69;63.18
75855;BME280;64502;59.976;30.316;2023-02-15T07:23:07;102406.06;;;3.69;63.22
75855;BME280;64502;59.976;30.316;2023-02-15T07:25:33;102410.41;;;3.73;63.36
75855;BME280;64502;59.976;30.316;2023-02-15T07:28:01;102413.03;;;3.68;63.33
75855;BME280;64502;59.976;30.316;2023-02-15T07:30:27;102415.66;;;3.68;63.48
75855;BME280;64502;59.976;30.316;2023-02-15T07:32:59;102415.63;;;3.71;62.86
75855;BME280;64502;59.976;30.316;2023-02-15T07:35:50;102416.47;;;3.78;63.02
75855;BME280;64502;59.976;30.316;2023-02-15T07:38:17;102414.72;;;3.83;63.41
75855;BME280;64502;59.976;30.316;2023-02-15T07:40:43;102419.06;;;3.93;63.11
75855;BME280;64502;59.976;30.316;2023-02-15T07:43:08;102421.63;;;3.99;62.05
75855;BME280;64502;59.976;30.316;2023-02-15T07:45:34;102424.25;;;4.01;62.23
75855;BME280;64502;59.976;30.316;2023-02-15T07:48:03;102425.97;;;4.05;62.42
75855;BME280;64502;59.976;30.316;2023-02-15T07:50:29;102433.78;;;4.13;62.94
75855;BME280;64502;59.976;30.316;2023-02-15T07:52:55;102424.22;;;4.07;62.27
75855;BME280;64502;59.976;30.316;2023-02-15T07:55:20;102436.44;;;4.07;62.55
75855;BME280;64502;59.976;30.316;2023-02-15T07:57:47;102440.78;;;4.02;62.29
75855;BME280;64502;59.976;30.316;2023-02-15T08:00:14;102432.97;;;3.92;62.01
75855;BME280;64502;59.976;30.316;2023-02-15T08:02:40;102435.56;;;3.92;62.57
75855;BME280;64502;59.976;30.316;2023-02-15T08:05:06;102443.41;;;3.94;63.02
75855;BME280;64502;59.976;30.316;2023-02-15T08:07:32;102431.22;;;3.94;62.75
75855;BME280;64502;59.976;30.316;2023-02-15T08:09:58;102437.31;;;3.98;62.25
75855;BME280;64502;59.976;30.316;2023-02-15T08:12:27;102432.09;;;3.99;62.72
75855;BME280;64502;59.976;30.316;2023-02-15T08:14:53;102435.56;;;4.05;62.57
75855;BME280;64502;59.976;30.316;2023-02-15T08:17:18;102438.16;;;4.08;62.85
75855;BME280;64502;59.976;30.316;2023-02-15T08:19:44;102441.63;;;4.17;62.30
75855;BME280;64502;59.976;30.316;2023-02-15T08:22:11;102442.47;;;4.26;61.78
75855;BME280;64502;59.976;30.316;2023-02-15T08:24:37;102441.53;;;4.28;61.67
75855;BME280;64502;59.976;30.316;2023-02-15T08:27:05;102441.56;;;4.30;61.69
75855;BME280;64502;59.976;30.316;2023-02-15T08:29:31;102443.28;;;4.32;61.76
75855;BME280;64502;59.976;30.316;2023-02-15T08:31:59;102432.84;;;4.34;61.48
75855;BME280;64502;59.976;30.316;2023-02-15T08:34:28;102440.72;;;4.20;60.74
75855;BME280;64502;59.976;30.316;2023-02-15T08:36:54;102439.00;;;4.11;61.58
75855;BME280;64502;59.976;30.316;2023-02-15T08:39:19;102435.59;;;3.98;60.99
75855;BME280;64502;59.976;30.316;2023-02-15T08:41:46;102437.34;;;3.89;61.09
75855;BME280;64502;59.976;30.316;2023-02-15T08:44:12;102433.00;;;3.82;62.18
75855;BME280;64502;59.976;30.316;2023-02-15T08:46:40;102434.75;;;3.81;62.66
75855;BME280;64502;59.976;30.316;2023-02-15T08:49:07;102439.09;;;3.84;61.95
75855;BME280;64502;59.976;30.316;2023-02-15T08:51:34;102436.47;;;3.88;62.28
75855;BME280;64502;59.976;30.316;2023-02-15T08:54:03;102437.31;;;3.96;62.51
75855;BME280;64502;59.976;30.316;2023-02-15T08:56:32;102432.94;;;4.05;63.11
75855;BME280;64502;59.976;30.316;2023-02-15T08:58:58;102432.91;;;4.15;62.10
75855;BME280;64502;59.976;30.316;2023-02-15T09:01:26;102431.97;;;4.22;61.77
75855;BME280;64502;59.976;30.316;2023-02-15T09:03:55;102427.63;;;4.29;61.84
75855;BME280;64502;59.976;30.316;2023-02-15T09:06:22;102425.00;;;4.34;61.60
75855;BME280;64502;59.976;30.316;2023-02-15T09:08:49;102431.03;;;4.39;62.00
75855;BME280;64502;59.976;30.316;2023-02-15T09:11:18;102420.56;;;4.47;61.87
75855;BME280;64502;59.976;30.316;2023-02-15T09:13:57;102424.88;;;4.57;61.38
75855;BME280;64502;59.976;30.316;2023-02-15T09:16:25;102419.59;;;4.63;61.50
75855;BME280;64502;59.976;30.316;2023-02-15T09:18:51;102417.81;;;4.73;61.37
75855;BME280;64502;59.976;30.316;2023-02-15T09:21:20;102419.44;;;4.84;60.91
75855;BME280;64502;59.976;30.316;2023-02-15T09:23:48;102410.66;;;4.98;60.36
75855;BME280;64502;59.976;30.316;2023-02-15T09:26:22;102419.28;;;5.09;60.00
75855;BME280;64502;59.976;30.316;2023-02-15T09:28:51;102415.72;;;5.19;60.16
75855;BME280;64502;59.976;30.316;2023-02-15T09:31:18;102412.06;;;5.34;57.94
75855;BME280;64502;59.976;30.316;2023-02-15T09:33:45;102412.06;;;5.36;59.67
75855;BME280;64502;59.976;30.316;2023-02-15T09:36:19;102418.97;;;5.43;58.83
75855;BME280;64502;59.976;30.316;2023-02-15T09:38:47;102406.81;;;5.40;59.85
75855;BME280;64502;59.976;30.316;2023-02-15T09:41:22;102411.09;;;5.44;58.96
75855;BME280;64502;59.976;30.316;2023-02-15T09:44:11;102411.94;;;5.49;58.39
75855;BME280;64502;59.976;30.316;2023-02-15T09:49:40;102410.31;;;5.38;59.53
75855;BME280;64502;59.976;30.316;2023-02-15T10:00:38;102423.28;;;5.51;57.78
75855;BME280;64502;59.976;30.316;2023-02-15T10:03:27;102425.88;;;5.51;58.37
75855;BME280;64502;59.976;30.316;2023-02-15T10:06:26;102415.41;;;5.51;60.50
75855;BME280;64502;59.976;30.316;2023-02-15T10:27:19;102402.19;;;5.65;59.33
75855;BME280;64502;59.976;30.316;2023-02-15T10:30:02;102390.72;;;5.72;58.86
75855;BME280;64502;59.976;30.316;2023-02-15T10:32:40;102389.88;;;5.73;59.24
75855;BME280;64502;59.976;30.316;2023-02-15T10:35:22;102395.03;;;5.81;58.77
75855;BME280;64502;59.976;30.316;2023-02-15T10:38:10;102391.44;;;5.88;58.86
75855;BME280;64502;59.976;30.316;2023-02-15T10:41:25;102385.19;;;6.03;59.06
75855;BME280;64502;59.976;30.316;2023-02-15T10:44:11;102392.69;;;6.31;59.91
75855;BME280;64502;59.976;30.316;2023-02-15T10:50:06;102373.22;;;7.03;57.51
75855;BME280;64502;59.976;30.316;2023-02-15T10:55:25;102368.09;;;7.91;55.40
75855;BME280;64502;59.976;30.316;2023-02-15T11:01:00;102358.03;;;8.52;52.48
75855;BME280;64502;59.976;30.316;2023-02-15T11:06:08;102365.19;;;8.04;52.55
75855;BME280;64502;59.976;30.316;2023-02-15T11:08:43;102362.06;;;7.86;53.30
75855;BME280;64502;59.976;30.316;2023-02-15T11:11:26;102365.97;;;7.67;54.48
75855;BME280;64502;59.976;30.316;2023-02-15T11:13:57;102369.00;;;7.44;54.50
75855;BME280;64502;59.976;30.316;2023-02-15T11:16:31;102361.31;;;7.34;54.15
75855;BME280;64502;59.976;30.316;2023-02-15T11:19:01;102369.31;;;7.27;55.17
75855;BME280;64502;59.976;30.316;2023-02-15T11:21:33;102374.75;;;7.18;54.10
75855;BME280;64502;59.976;30.316;2023-02-15T11:24:14;102374.88;;;7.10;56.01
75855;BME280;64502;59.976;30.316;2023-02-15T11:26:44;102380.94;;;7.14;57.92
75855;BME280;64502;59.976;30.316;2023-02-15T11:29:36;102375.91;;;7.01;57.12
75855;BME280;64502;59.976;30.316;2023-02-15T11:32:19;102374.31;;;6.89;57.28
75855;BME280;64502;59.976;30.316;2023-02-15T11:38:27;102383.69;;;6.50;58.49
75855;BME280;64502;59.976;30.316;2023-02-15T11:41:07;102377.81;;;6.31;57.67
75855;BME280;64502;59.976;30.316;2023-02-15T11:43:43;102384.94;;;6.23;58.38
75855;BME280;64502;59.976;30.316;2023-02-15T11:46:12;102372.81;;;6.13;58.59
75855;BME280;64502;59.976;30.316;2023-02-15T11:48:38;102367.66;;;6.07;58.42
75855;BME280;64502;59.976;30.316;2023-02-15T11:51:04;102370.41;;;5.97;59.25
75855;BME280;64502;59.976;30.316;2023-02-15T11:53:32;102366.91;;;5.98;58.16
75855;BME280;64502;59.976;30.316;2023-02-15T11:55:59;102379.19;;;5.95;58.61
75855;BME280;64502;59.976;30.316;2023-02-15T11:58:37;102371.28;;;5.98;59.32
75855;BME280;64502;59.976;30.316;2023-02-15T12:03:51;102358.72;;;6.23;58.98
75855;BME280;64502;59.976;30.316;2023-02-15T12:06:27;102364.78;;;6.27;58.21
75855;BME280;64502;59.976;30.316;2023-02-15T12:11:41;102356.81;;;6.34;58.54
75855;BME280;64502;59.976;30.316;2023-02-15T12:14:12;102365.63;;;6.29;59.98
75855;BME280;64502;59.976;30.316;2023-02-15T12:16:51;102360.47;;;6.21;59.29
75855;BME280;64502;59.976;30.316;2023-02-15T12:21:54;102356.25;;;6.11;58.62
75855;BME280;64502;59.976;30.316;2023-02-15T12:24:38;102360.91;;;5.87;60.06
75855;BME280;64502;59.976;30.316;2023-02-15T12:27:17;102364.66;;;5.63;60.45
75855;BME280;64502;59.976;30.316;2023-02-15T12:32:27;102359.66;;;5.42;60.62
75855;BME280;64502;59.976;30.316;2023-02-15T12:35:15;102356.28;;;5.29;62.20
75855;BME280;64502;59.976;30.316;2023-02-15T12:37:53;102362.56;;;5.11;62.10
75855;BME280;64502;59.976;30.316;2023-02-15T12:40:25;102361.78;;;5.03;62.24
75855;BME280;64502;59.976;30.316;2023-02-15T12:42:51;102358.31;;;4.96;62.94
75855;BME280;64502;59.976;30.316;2023-02-15T12:45:33;102360.91;;;5.01;62.71
75855;BME280;64502;59.976;30.316;2023-02-15T12:50:41;102358.19;;;5.11;62.24
75855;BME280;64502;59.976;30.316;2023-02-15T12:53:13;102366.06;;;5.13;62.21
75855;BME280;64502;59.976;30.316;2023-02-15T12:55:38;102366.16;;;4.99;62.77
75855;BME280;64502;59.976;30.316;2023-02-15T12:58:25;102365.41;;;4.85;62.44
75855;BME280;64502;59.976;30.316;2023-02-15T13:03:54;102373.41;;;4.65;63.43
75855;BME280;64502;59.976;30.316;2023-02-15T13:06:20;102379.53;;;4.58;63.08
75855;BME280;64502;59.976;30.316;2023-02-15T13:08:48;102383.00;;;4.60;63.01
75855;BME280;64502;59.976;30.316;2023-02-15T13:11:21;102383.88;;;4.62;63.48
75855;BME280;64502;59.976;30.316;2023-02-15T13:16:37;102381.16;;;4.76;62.67
75855;BME280;64502;59.976;30.316;2023-02-15T13:19:16;102382.00;;;4.79;63.14
75855;BME280;64502;59.976;30.316;2023-02-15T13:21:51;102379.31;;;4.90;62.67
75855;BME280;64502;59.976;30.316;2023-02-15T13:24:36;102385.31;;;5.01;62.70
75855;BME280;64502;59.976;30.316;2023-02-15T13:27:04;102380.06;;;5.06;62.78
75855;BME280;64502;59.976;30.316;2023-02-15T13:29:33;102378.41;;;4.94;62.23
75855;BME280;64502;59.976;30.316;2023-02-15T13:32:02;102377.50;;;4.98;62.39
75855;BME280;64502;59.976;30.316;2023-02-15T13:34:36;102371.41;;;4.98;62.20
75855;BME280;64502;59.976;30.316;2023-02-15T13:42:21;102377.41;;;5.10;61.48
75855;BME280;64502;59.976;30.316;2023-02-15T13:45:06;102378.28;;;5.09;61.51
75855;BME280;64502;59.976;30.316;2023-02-15T14:01:10;102379.50;;;4.62;63.06
75855;BME280;64502;59.976;30.316;2023-02-15T14:10:06;102380.47;;;4.44;63.78
75855;BME280;64502;59.976;30.316;2023-02-15T14:31:30;102365.03;;;4.09;64.79
75855;BME280;64502;59.976;30.316;2023-02-15T14:33:58;102369.34;;;4.09;64.62
75855;BME280;64502;59.976;30.316;2023-02-15T14:36:25;102371.09;;;4.11;64.55
75855;BME280;64502;59.976;30.316;2023-02-15T14:42:04;102371.97;;;4.10;64.96
75855;BME280;64502;59.976;30.316;2023-02-15T14:45:02;102367.63;;;4.12;65.24
75855;BME280;64502;59.976;30.316;2023-02-15T14:47:43;102372.84;;;4.11;65.57
75855;BME280;64502;59.976;30.316;2023-02-15T14:55:40;102371.97;;;4.10;64.97
75855;BME280;64502;59.976;30.316;2023-02-15T14:58:10;102376.31;;;4.13;65.47
75855;BME280;64502;59.976;30.316;2023-02-15T15:00:42;102375.44;;;4.14;65.55
75855;BME280;64502;59.976;30.316;2023-02-15T15:03:21;102370.19;;;4.14;64.75
75855;BME280;64502;59.976;30.316;2023-02-15T15:05:52;102378.06;;;4.12;65.20
75855;BME280;64502;59.976;30.316;2023-02-15T15:08:38;102377.19;;;4.10;65.48
75855;BME280;64502;59.976;30.316;2023-02-15T15:13:59;102378.06;;;4.11;65.26
75855;BME280;64502;59.976;30.316;2023-02-15T15:16:50;102375.44;;;4.11;64.94
75855;BME280;64502;59.976;30.316;2023-02-15T15:22:18;102368.50;;;4.07;65.01
75855;BME280;64502;59.976;30.316;2023-02-15T15:41:41;102371.13;;;4.02;64.75
75855;BME280;64502;59.976;30.316;2023-02-15T15:49:29;102366.84;;;3.90;65.87
75855;BME280;64502;59.976;30.316;2023-02-15T15:52:00;102367.72;;;3.91;65.60
75855;BME280;64502;59.976;30.316;2023-02-15T15:54:26;102369.44;;;3.89;66.14
75855;BME280;64502;59.976;30.316;2023-02-15T15:57:00;102372.06;;;3.89;65.95
75855;BME280;64502;59.976;30.316;2023-02-15T15:59:30;102368.63;;;3.77;66.98
75855;BME280;64502;59.976;30.316;2023-02-15T16:01:56;102372.13;;;3.67;67.33